• Join FlightAware (Why Join?)
  • Login
  • US Flag 
10:54PM EDT


 

Airport Tracker/Info


-or-


 

Live Flight TrackerFlight Track Log ✈ EJA658 ✈ 24-Apr-2013 ✈ KBED - KMMU

Flight Track Log - Related Links

Times and Time Zones

All times are in EDT time to prevent confusion due to time zone crossing. See the EJA658 flight status page for this flight to view local times or setup timezone preferences in your user account.

Time Position Orientation Groundspeed Altitude Reporting Facility
EDT Latitude Longitude Course Direction KTS MPH feet Rate Location/Type
01:47PM 42.4667 -71.3167 246° West 203 234 1,300  Level KA90
01:48PM 42.4500 -71.3667 246° West 203 234 2,500 840 Climbing KA90
01:49PM 42.3833 -71.3500 170° South 231 266 3,000 1,080 Climbing KA90
01:50PM 42.3389 -71.3644 194° South 246 283 4,600 2,820 Climbing Boston Center
01:52PM 42.3150 -71.4828 255° West 244 281 9,100 3,480 Climbing Boston Center
01:53PM 42.3158 -71.5836 271° West 255 293 12,300 2,220 Climbing Boston Center
01:54PM 42.2981 -71.7186 260° West 289 333 14,000 480 Climbing Boston Center
01:56PM 42.2619 -71.9883 260° West 354 407 14,000 -120 Level Boston Center
01:57PM 42.2436 -72.1203 259° West 359 413 13,800 -600 Descending Boston Center
01:58PM 42.2272 -72.2439 260° West 348 400 12,900 -960 Descending Boston Center
01:59PM 42.2108 -72.3672 260° West 343 395 11,900 -540 Descending Boston Center
02:00PM 42.1919 -72.4906 258° West 343 395 11,900  Level Boston Center
02:01PM 42.1772 -72.6111 261° West 338 389 11,900  Level Boston Center
02:02PM 42.1603 -72.7369 260° West 338 389 11,900  Level Boston Center
02:03PM 42.1536 -72.8631 266° West 338 389 11,900  Level Boston Center
02:04PM 42.1447 -72.9833 264° West 331 381 11,900  Level Boston Center
02:05PM 42.1381 -73.0981 266° West 331 381 11,900  Level Boston Center
02:06PM 42.1289 -73.2322 265° West 331 381 11,900  Level Boston Center
02:07PM 42.1175 -73.3553 263° West 331 381 11,900  Level Boston Center
02:08PM 42.1078 -73.5036 265° West 331 381 11,900  Level Boston Center
02:09PM 42.1211 -73.6242 279° West 326 375 11,900  Level Boston Center
02:10PM 42.1492 -73.7394 288° West 326 375 11,900  Level Boston Center
02:11PM 42.1686 -73.8464 284° West 332 382 11,900  Level Boston Center
02:12PM 42.1775 -73.9725 275° West 315 362 11,900  Level Boston Center
02:13PM 42.1467 -74.0839 250° West 312 359 11,900  Level Boston Center
02:14PM 42.0992 -74.1944 240° Southwest 334 384 11,900 -360 Level Boston Center
02:15PM 42.0581 -74.2911 240° Southwest 339 390 11,200 -900 Descending Boston Center
02:16PM 41.9839 -74.3672 217° Southwest 317 365 10,200 -660 Descending Boston Center
02:17PM 41.9122 -74.4153 207° Southwest 317 365 9,900 -540 Descending Boston Center
02:18PM 41.8319 -74.4742 209° Southwest 312 359 9,200 -1,020 Descending Boston Center
02:19PM 41.7769 -74.5142 208° Southwest 274 315 7,900 -1,140 Descending Boston Center
02:20PM 41.7017 -74.5367 193° South 254 292 7,000 -540 Descending Boston Center
02:21PM 41.6550 -74.5683 207° Southwest 229 264 6,900  Descending Boston Center
02:22PM 41.6025 -74.6000 204° Southwest 197 227 7,000  Climbing Boston Center
02:23PM 41.5378 -74.5978 179° South 230 265 7,000 -360 Level Boston Center
02:24PM 41.4628 -74.5925 177° South 251 289 6,300 -360 Descending Boston Center
02:26PM 41.3167 -74.6167 187° South 256 295 6,000 -420 Descending New York TRACON
02:27PM 41.2500 -74.5833 159° South 258 297 5,100 -1,200 Descending New York TRACON
02:28PM 41.1833 -74.5500 159° South 249 287 3,600 -1,080 Descending New York TRACON
02:29PM 41.1167 -74.5167 159° South 230 265 3,000 -300 Descending New York TRACON
02:30PM 41.0667 -74.4833 153° Southeast 188 216 3,000  Level New York TRACON
02:31PM 41.0500 -74.4333 114° Southeast 175 201 3,000  Level New York TRACON
02:32PM 41.0333 -74.3667 108° East 212 244 3,000 -180 Level New York TRACON
02:33PM 41.0000 -74.3000 124° Southeast 216 249 2,700 -540 Descending New York TRACON
02:34PM 40.9500 -74.2667 153° Southeast 177 204 2,000 -360 Descending New York TRACON
02:35PM 40.9167 -74.3000 217° Southwest 153 176 2,000  Level New York TRACON
02:36PM 40.8833 -74.3333 217° Southwest 164 189 2,000 -420 Level New York TRACON
02:37PM 40.8500 -74.3667 217° Southwest 147 169 1,200 -540 Descending New York TRACON
02:38PM 40.8167 -74.4000 217° Southwest 137 158 1,000 -240 Descending New York TRACON